sensor_id;sensor_type;location;lat;lon;timestamp;temperature;humidity
3310;DHT22;1667;53.238;10.394;2023-03-14T00:04:16;13.20;99.90
3310;DHT22;1667;53.238;10.394;2023-03-14T00:09:15;13.20;99.90
3310;DHT22;1667;53.238;10.394;2023-03-14T00:14:13;13.20;99.90
3310;DHT22;1667;53.238;10.394;2023-03-14T00:19:15;13.20;99.90
3310;DHT22;1667;53.238;10.394;2023-03-14T00:24:14;13.20;99.90
3310;DHT22;1667;53.238;10.394;2023-03-14T00:36:11;13.30;99.90
3310;DHT22;1667;53.238;10.394;2023-03-14T00:41:11;13.30;99.90
3310;DHT22;1667;53.238;10.394;2023-03-14T00:46:11;13.30;99.90
3310;DHT22;1667;53.238;10.394;2023-03-14T00:51:11;13.30;99.90
3310;DHT22;1667;53.238;10.394;2023-03-14T00:56:13;13.40;99.90
3310;DHT22;1667;53.238;10.394;2023-03-14T01:01:15;13.40;99.90
3310;DHT22;1667;53.238;10.394;2023-03-14T01:06:18;13.40;99.90
3310;DHT22;1667;53.238;10.394;2023-03-14T01:11:23;13.30;99.90
3310;DHT22;1667;53.238;10.394;2023-03-14T01:16:25;13.40;99.90
3310;DHT22;1667;53.238;10.394;2023-03-14T01:21:28;13.40;99.90
3310;DHT22;1667;53.238;10.394;2023-03-14T01:26:31;13.30;99.90
3310;DHT22;1667;53.238;10.394;2023-03-14T01:31:30;13.40;99.90
3310;DHT22;1667;53.238;10.394;2023-03-14T01:36:37;13.30;99.90
3310;DHT22;1667;53.238;10.394;2023-03-14T01:41:38;13.30;99.90
3310;DHT22;1667;53.238;10.394;2023-03-14T01:46:39;13.30;99.90
3310;DHT22;1667;53.238;10.394;2023-03-14T01:51:45;13.30;99.90
3310;DHT22;1667;53.238;10.394;2023-03-14T01:56:49;13.20;99.90
3310;DHT22;1667;53.238;10.394;2023-03-14T02:01:51;13.20;99.90
3310;DHT22;1667;53.238;10.394;2023-03-14T02:06:57;13.30;99.90
3310;DHT22;1667;53.238;10.394;2023-03-14T02:12:03;13.20;99.90
3310;DHT22;1667;53.238;10.394;2023-03-14T02:17:24;13.20;99.90
3310;DHT22;1667;53.238;10.394;2023-03-14T02:22:45;13.20;99.90
3310;DHT22;1667;53.238;10.394;2023-03-14T02:27:47;13.20;99.90
3310;DHT22;1667;53.238;10.394;2023-03-14T02:32:49;13.20;99.90
3310;DHT22;1667;53.238;10.394;2023-03-14T02:37:53;13.20;99.90
3310;DHT22;1667;53.238;10.394;2023-03-14T02:42:58;13.20;99.90
3310;DHT22;1667;53.238;10.394;2023-03-14T02:48:02;13.10;99.90
3310;DHT22;1667;53.238;10.394;2023-03-14T02:53:05;13.10;99.90
3310;DHT22;1667;53.238;10.394;2023-03-14T02:58:07;13.00;99.90
3310;DHT22;1667;53.238;10.394;2023-03-14T03:03:06;13.00;99.90
3310;DHT22;1667;53.238;10.394;2023-03-14T03:08:06;12.90;99.90
3310;DHT22;1667;53.238;10.394;2023-03-14T03:13:08;13.00;99.90
3310;DHT22;1667;53.238;10.394;2023-03-14T03:18:07;12.90;99.90
3310;DHT22;1667;53.238;10.394;2023-03-14T03:23:07;12.90;99.90
3310;DHT22;1667;53.238;10.394;2023-03-14T03:28:09;12.90;99.90
3310;DHT22;1667;53.238;10.394;2023-03-14T03:33:10;12.90;99.90
3310;DHT22;1667;53.238;10.394;2023-03-14T03:38:13;12.90;99.90
3310;DHT22;1667;53.238;10.394;2023-03-14T03:43:20;12.90;99.90
3310;DHT22;1667;53.238;10.394;2023-03-14T03:48:19;12.90;99.90
3310;DHT22;1667;53.238;10.394;2023-03-14T03:53:18;12.90;99.90
3310;DHT22;1667;53.238;10.394;2023-03-14T03:58:44;12.90;99.90
3310;DHT22;1667;53.238;10.394;2023-03-14T04:03:46;12.90;99.90
3310;DHT22;1667;53.238;10.394;2023-03-14T04:08:45;12.80;99.90
3310;DHT22;1667;53.238;10.394;2023-03-14T04:14:02;12.80;99.90
3310;DHT22;1667;53.238;10.394;2023-03-14T04:19:01;12.80;99.90
3310;DHT22;1667;53.238;10.394;2023-03-14T04:24:02;12.80;99.90
3310;DHT22;1667;53.238;10.394;2023-03-14T04:29:05;12.70;99.90
3310;DHT22;1667;53.238;10.394;2023-03-14T04:34:04;12.70;99.90
3310;DHT22;1667;53.238;10.394;2023-03-14T04:39:11;12.70;99.90
3310;DHT22;1667;53.238;10.394;2023-03-14T04:44:19;12.60;99.90
3310;DHT22;1667;53.238;10.394;2023-03-14T04:49:21;12.60;99.90
3310;DHT22;1667;53.238;10.394;2023-03-14T04:54:19;12.60;99.90
3310;DHT22;1667;53.238;10.394;2023-03-14T04:59:23;12.60;99.90
3310;DHT22;1667;53.238;10.394;2023-03-14T05:04:26;12.60;99.90
3310;DHT22;1667;53.238;10.394;2023-03-14T05:09:43;12.60;99.90
3310;DHT22;1667;53.238;10.394;2023-03-14T05:15:01;12.60;99.90
3310;DHT22;1667;53.238;10.394;2023-03-14T05:20:18;12.60;99.90
3310;DHT22;1667;53.238;10.394;2023-03-14T05:25:30;12.60;99.90
3310;DHT22;1667;53.238;10.394;2023-03-14T05:30:51;12.60;99.90
3310;DHT22;1667;53.238;10.394;2023-03-14T05:36:08;12.60;99.90
3310;DHT22;1667;53.238;10.394;2023-03-14T05:41:22;12.60;99.90
3310;DHT22;1667;53.238;10.394;2023-03-14T05:46:27;12.50;99.90
3310;DHT22;1667;53.238;10.394;2023-03-14T05:51:50;12.50;99.90
3310;DHT22;1667;53.238;10.394;2023-03-14T05:56:57;12.50;99.90
3310;DHT22;1667;53.238;10.394;2023-03-14T06:02:08;12.40;99.90
3310;DHT22;1667;53.238;10.394;2023-03-14T06:07:17;12.40;99.90
3310;DHT22;1667;53.238;10.394;2023-03-14T06:12:16;12.40;99.90
3310;DHT22;1667;53.238;10.394;2023-03-14T06:17:17;12.40;99.90
3310;DHT22;1667;53.238;10.394;2023-03-14T06:22:31;12.40;99.90
3310;DHT22;1667;53.238;10.394;2023-03-14T06:27:31;12.40;99.90
3310;DHT22;1667;53.238;10.394;2023-03-14T06:32:31;12.40;99.90
3310;DHT22;1667;53.238;10.394;2023-03-14T06:37:35;12.40;99.90
3310;DHT22;1667;53.238;10.394;2023-03-14T06:42:35;12.40;99.90
3310;DHT22;1667;53.238;10.394;2023-03-14T06:47:35;12.40;99.90
3310;DHT22;1667;53.238;10.394;2023-03-14T06:52:35;12.40;99.90
3310;DHT22;1667;53.238;10.394;2023-03-14T06:57:34;12.50;99.90
3310;DHT22;1667;53.238;10.394;2023-03-14T07:02:34;12.40;99.90
3310;DHT22;1667;53.238;10.394;2023-03-14T07:07:48;12.40;99.90
3310;DHT22;1667;53.238;10.394;2023-03-14T07:12:47;12.40;99.90
3310;DHT22;1667;53.238;10.394;2023-03-14T07:17:47;12.40;99.90
3310;DHT22;1667;53.238;10.394;2023-03-14T07:22:49;12.40;99.90
3310;DHT22;1667;53.238;10.394;2023-03-14T07:27:56;12.50;99.90
3310;DHT22;1667;53.238;10.394;2023-03-14T07:32:56;12.50;99.90
3310;DHT22;1667;53.238;10.394;2023-03-14T07:37:55;12.50;99.90
3310;DHT22;1667;53.238;10.394;2023-03-14T07:43:01;12.50;99.90
3310;DHT22;1667;53.238;10.394;2023-03-14T07:48:17;12.50;99.90
3310;DHT22;1667;53.238;10.394;2023-03-14T07:53:16;12.50;99.90
3310;DHT22;1667;53.238;10.394;2023-03-14T07:58:14;12.60;99.90
3310;DHT22;1667;53.238;10.394;2023-03-14T08:03:13;12.60;99.90
3310;DHT22;1667;53.238;10.394;2023-03-14T08:08:13;12.60;99.90
3310;DHT22;1667;53.238;10.394;2023-03-14T08:13:12;12.60;99.90
3310;DHT22;1667;53.238;10.394;2023-03-14T08:18:10;12.70;99.90
3310;DHT22;1667;53.238;10.394;2023-03-14T08:23:08;12.80;99.90
3310;DHT22;1667;53.238;10.394;2023-03-14T08:28:08;12.90;99.90
3310;DHT22;1667;53.238;10.394;2023-03-14T08:33:07;13.00;99.90
3310;DHT22;1667;53.238;10.394;2023-03-14T08:38:05;13.00;99.90
3310;DHT22;1667;53.238;10.394;2023-03-14T08:43:04;13.10;99.90
3310;DHT22;1667;53.238;10.394;2023-03-14T08:48:05;13.20;99.90
3310;DHT22;1667;53.238;10.394;2023-03-14T08:53:04;13.30;99.90
3310;DHT22;1667;53.238;10.394;2023-03-14T08:58:02;13.30;99.90
3310;DHT22;1667;53.238;10.394;2023-03-14T09:03:01;13.50;99.90
3310;DHT22;1667;53.238;10.394;2023-03-14T09:08:01;13.60;99.90
3310;DHT22;1667;53.238;10.394;2023-03-14T09:13:00;13.70;99.90
3310;DHT22;1667;53.238;10.394;2023-03-14T09:17:58;13.80;99.90
3310;DHT22;1667;53.238;10.394;2023-03-14T09:22:57;14.00;99.90
3310;DHT22;1667;53.238;10.394;2023-03-14T09:27:57;14.10;99.90
3310;DHT22;1667;53.238;10.394;2023-03-14T09:32:56;14.10;99.90
3310;DHT22;1667;53.238;10.394;2023-03-14T09:37:54;14.20;99.90
3310;DHT22;1667;53.238;10.394;2023-03-14T09:42:54;14.20;99.90
3310;DHT22;1667;53.238;10.394;2023-03-14T09:47:55;14.20;99.90
3310;DHT22;1667;53.238;10.394;2023-03-14T09:52:58;14.20;99.90
3310;DHT22;1667;53.238;10.394;2023-03-14T09:58:02;14.20;99.90
3310;DHT22;1667;53.238;10.394;2023-03-14T10:03:20;14.30;99.90
3310;DHT22;1667;53.238;10.394;2023-03-14T10:08:20;14.30;99.90
3310;DHT22;1667;53.238;10.394;2023-03-14T10:19:18;14.40;99.90
3310;DHT22;1667;53.238;10.394;2023-03-14T10:24:20;14.50;99.90
3310;DHT22;1667;53.238;10.394;2023-03-14T10:29:19;14.60;99.90
3310;DHT22;1667;53.238;10.394;2023-03-14T10:34:24;14.60;99.90
3310;DHT22;1667;53.238;10.394;2023-03-14T10:39:34;14.60;99.90
3310;DHT22;1667;53.238;10.394;2023-03-14T10:44:36;14.50;99.90
3310;DHT22;1667;53.238;10.394;2023-03-14T10:49:37;14.30;99.90
3310;DHT22;1667;53.238;10.394;2023-03-14T10:54:35;14.30;99.90
3310;DHT22;1667;53.238;10.394;2023-03-14T10:59:35;14.20;99.90
3310;DHT22;1667;53.238;10.394;2023-03-14T11:04:48;14.00;99.90
3310;DHT22;1667;53.238;10.394;2023-03-14T11:09:50;13.80;99.90
3310;DHT22;1667;53.238;10.394;2023-03-14T11:14:55;13.60;99.90
3310;DHT22;1667;53.238;10.394;2023-03-14T11:20:07;13.40;99.90
3310;DHT22;1667;53.238;10.394;2023-03-14T11:25:18;13.30;99.90
3310;DHT22;1667;53.238;10.394;2023-03-14T11:36:30;12.90;99.90
3310;DHT22;1667;53.238;10.394;2023-03-14T11:41:32;12.60;99.90
3310;DHT22;1667;53.238;10.394;2023-03-14T11:46:34;12.40;99.90
3310;DHT22;1667;53.238;10.394;2023-03-14T11:51:39;11.90;99.90
3310;DHT22;1667;53.238;10.394;2023-03-14T11:56:44;11.40;99.90
3310;DHT22;1667;53.238;10.394;2023-03-14T12:01:56;11.10;99.90
3310;DHT22;1667;53.238;10.394;2023-03-14T12:07:02;10.90;99.90
3310;DHT22;1667;53.238;10.394;2023-03-14T12:12:02;10.70;99.90
3310;DHT22;1667;53.238;10.394;2023-03-14T12:17:05;10.50;99.90
3310;DHT22;1667;53.238;10.394;2023-03-14T12:22:24;10.20;99.90
3310;DHT22;1667;53.238;10.394;2023-03-14T12:27:49;10.10;99.90
3310;DHT22;1667;53.238;10.394;2023-03-14T12:33:33;9.50;99.90
3310;DHT22;1667;53.238;10.394;2023-03-14T12:38:59;9.30;99.90
3310;DHT22;1667;53.238;10.394;2023-03-14T12:49:36;9.20;99.90
3310;DHT22;1667;53.238;10.394;2023-03-14T12:54:41;9.20;99.90
3310;DHT22;1667;53.238;10.394;2023-03-14T12:59:46;9.10;99.90
3310;DHT22;1667;53.238;10.394;2023-03-14T13:04:48;9.20;99.90
3310;DHT22;1667;53.238;10.394;2023-03-14T13:09:53;9.20;99.90
3310;DHT22;1667;53.238;10.394;2023-03-14T13:14:54;9.40;99.90
3310;DHT22;1667;53.238;10.394;2023-03-14T13:19:57;9.40;99.90
3310;DHT22;1667;53.238;10.394;2023-03-14T13:25:01;9.50;99.90
3310;DHT22;1667;53.238;10.394;2023-03-14T13:30:13;9.80;99.90
3310;DHT22;1667;53.238;10.394;2023-03-14T13:35:18;9.80;99.90
3310;DHT22;1667;53.238;10.394;2023-03-14T13:40:25;9.90;99.90
3310;DHT22;1667;53.238;10.394;2023-03-14T13:45:24;9.90;99.90
3310;DHT22;1667;53.238;10.394;2023-03-14T13:50:23;9.70;99.90
3310;DHT22;1667;53.238;10.394;2023-03-14T13:55:23;9.70;99.90
3310;DHT22;1667;53.238;10.394;2023-03-14T14:00:23;9.60;99.90
3310;DHT22;1667;53.238;10.394;2023-03-14T14:05:27;9.60;99.90
3310;DHT22;1667;53.238;10.394;2023-03-14T14:10:29;9.70;99.90
3310;DHT22;1667;53.238;10.394;2023-03-14T14:15:30;9.80;99.90
3310;DHT22;1667;53.238;10.394;2023-03-14T14:20:33;9.70;99.90
3310;DHT22;1667;53.238;10.394;2023-03-14T14:25:34;9.50;99.90
3310;DHT22;1667;53.238;10.394;2023-03-14T14:30:33;9.40;99.90
3310;DHT22;1667;53.238;10.394;2023-03-14T14:35:33;9.30;99.90
3310;DHT22;1667;53.238;10.394;2023-03-14T14:40:34;9.30;99.90
3310;DHT22;1667;53.238;10.394;2023-03-14T14:45:34;9.30;99.90
3310;DHT22;1667;53.238;10.394;2023-03-14T14:50:34;9.30;99.90
3310;DHT22;1667;53.238;10.394;2023-03-14T14:55:40;9.40;99.90
3310;DHT22;1667;53.238;10.394;2023-03-14T15:00:40;9.50;99.90
3310;DHT22;1667;53.238;10.394;2023-03-14T15:05:39;9.40;99.90
3310;DHT22;1667;53.238;10.394;2023-03-14T15:10:39;9.30;99.90
3310;DHT22;1667;53.238;10.394;2023-03-14T15:15:37;9.30;99.90
3310;DHT22;1667;53.238;10.394;2023-03-14T15:20:36;9.30;99.90
3310;DHT22;1667;53.238;10.394;2023-03-14T15:25:34;9.20;99.90
3310;DHT22;1667;53.238;10.394;2023-03-14T15:30:54;9.10;99.90
3310;DHT22;1667;53.238;10.394;2023-03-14T15:35:53;9.10;99.90
3310;DHT22;1667;53.238;10.394;2023-03-14T15:40:53;9.10;99.90
3310;DHT22;1667;53.238;10.394;2023-03-14T15:45:53;9.20;99.90
3310;DHT22;1667;53.238;10.394;2023-03-14T15:50:53;9.20;99.90
3310;DHT22;1667;53.238;10.394;2023-03-14T15:55:52;9.20;99.90
3310;DHT22;1667;53.238;10.394;2023-03-14T16:00:51;9.20;99.90
3310;DHT22;1667;53.238;10.394;2023-03-14T16:05:51;9.10;99.90
3310;DHT22;1667;53.238;10.394;2023-03-14T16:10:49;9.00;99.90
3310;DHT22;1667;53.238;10.394;2023-03-14T16:15:55;9.00;99.90
3310;DHT22;1667;53.238;10.394;2023-03-14T16:21:00;9.10;99.90
3310;DHT22;1667;53.238;10.394;2023-03-14T16:25:58;9.20;99.90
3310;DHT22;1667;53.238;10.394;2023-03-14T16:31:01;9.20;99.90
3310;DHT22;1667;53.238;10.394;2023-03-14T16:36:02;9.20;99.90
3310;DHT22;1667;53.238;10.394;2023-03-14T16:41:06;9.20;99.90
3310;DHT22;1667;53.238;10.394;2023-03-14T16:46:06;9.20;99.90
3310;DHT22;1667;53.238;10.394;2023-03-14T16:51:24;9.10;99.90
3310;DHT22;1667;53.238;10.394;2023-03-14T16:56:23;9.20;99.90
3310;DHT22;1667;53.238;10.394;2023-03-14T17:01:22;9.20;99.90
3310;DHT22;1667;53.238;10.394;2023-03-14T17:06:22;9.10;99.90
3310;DHT22;1667;53.238;10.394;2023-03-14T17:11:22;9.10;99.90
3310;DHT22;1667;53.238;10.394;2023-03-14T17:16:21;9.00;99.90
3310;DHT22;1667;53.238;10.394;2023-03-14T17:21:21;8.90;99.90
3310;DHT22;1667;53.238;10.394;2023-03-14T17:26:20;8.70;99.90
3310;DHT22;1667;53.238;10.394;2023-03-14T17:31:20;8.70;99.90
3310;DHT22;1667;53.238;10.394;2023-03-14T17:36:21;8.70;99.90
3310;DHT22;1667;53.238;10.394;2023-03-14T17:41:22;8.70;99.90
3310;DHT22;1667;53.238;10.394;2023-03-14T17:46:22;8.60;99.90
3310;DHT22;1667;53.238;10.394;2023-03-14T17:51:21;8.60;99.90
3310;DHT22;1667;53.238;10.394;2023-03-14T17:56:20;8.40;99.90
3310;DHT22;1667;53.238;10.394;2023-03-14T18:08:12;8.40;99.90
3310;DHT22;1667;53.238;10.394;2023-03-14T18:13:10;8.40;99.90
3310;DHT22;1667;53.238;10.394;2023-03-14T18:23:45;8.20;99.90
3310;DHT22;1667;53.238;10.394;2023-03-14T18:28:44;8.10;99.90
3310;DHT22;1667;53.238;10.394;2023-03-14T18:33:43;8.10;99.90
3310;DHT22;1667;53.238;10.394;2023-03-14T18:38:45;8.00;99.90
3310;DHT22;1667;53.238;10.394;2023-03-14T18:43:45;8.00;99.90
3310;DHT22;1667;53.238;10.394;2023-03-14T18:48:43;8.00;99.90
3310;DHT22;1667;53.238;10.394;2023-03-14T18:53:42;7.90;99.90
3310;DHT22;1667;53.238;10.394;2023-03-14T18:58:41;7.70;99.90
3310;DHT22;1667;53.238;10.394;2023-03-14T19:03:40;7.70;99.90
3310;DHT22;1667;53.238;10.394;2023-03-14T19:08:39;7.50;99.90
3310;DHT22;1667;53.238;10.394;2023-03-14T19:13:41;7.70;99.90
3310;DHT22;1667;53.238;10.394;2023-03-14T19:18:40;7.70;99.90
3310;DHT22;1667;53.238;10.394;2023-03-14T19:23:41;7.50;99.90
3310;DHT22;1667;53.238;10.394;2023-03-14T19:28:46;7.70;99.90
3310;DHT22;1667;53.238;10.394;2023-03-14T19:33:44;7.50;99.90
3310;DHT22;1667;53.238;10.394;2023-03-14T19:38:43;7.50;99.90
3310;DHT22;1667;53.238;10.394;2023-03-14T19:43:42;7.50;99.90
3310;DHT22;1667;53.238;10.394;2023-03-14T19:48:42;7.50;99.90
3310;DHT22;1667;53.238;10.394;2023-03-14T19:53:41;7.40;99.90
3310;DHT22;1667;53.238;10.394;2023-03-14T19:58:40;7.40;99.90
3310;DHT22;1667;53.238;10.394;2023-03-14T20:03:39;7.70;99.90
3310;DHT22;1667;53.238;10.394;2023-03-14T20:08:39;7.40;99.90
3310;DHT22;1667;53.238;10.394;2023-03-14T20:13:39;7.30;99.90
3310;DHT22;1667;53.238;10.394;2023-03-14T20:18:38;7.30;99.90
3310;DHT22;1667;53.238;10.394;2023-03-14T20:23:38;7.60;99.90
3310;DHT22;1667;53.238;10.394;2023-03-14T20:28:39;7.30;99.90
3310;DHT22;1667;53.238;10.394;2023-03-14T20:33:38;7.30;99.90
3310;DHT22;1667;53.238;10.394;2023-03-14T20:38:40;7.30;99.90
3310;DHT22;1667;53.238;10.394;2023-03-14T20:43:39;7.20;99.90
3310;DHT22;1667;53.238;10.394;2023-03-14T20:48:38;7.20;99.90
3310;DHT22;1667;53.238;10.394;2023-03-14T20:53:37;7.20;99.90
3310;DHT22;1667;53.238;10.394;2023-03-14T20:58:37;7.10;99.90
3310;DHT22;1667;53.238;10.394;2023-03-14T21:03:36;7.20;99.90
3310;DHT22;1667;53.238;10.394;2023-03-14T21:08:36;7.10;99.90
3310;DHT22;1667;53.238;10.394;2023-03-14T21:13:36;7.00;99.90
3310;DHT22;1667;53.238;10.394;2023-03-14T21:18:35;7.00;99.90
3310;DHT22;1667;53.238;10.394;2023-03-14T21:23:34;7.00;99.90
3310;DHT22;1667;53.238;10.394;2023-03-14T21:28:32;6.90;99.90
3310;DHT22;1667;53.238;10.394;2023-03-14T21:33:32;7.00;99.90
3310;DHT22;1667;53.238;10.394;2023-03-14T21:38:31;7.00;99.90
3310;DHT22;1667;53.238;10.394;2023-03-14T21:43:29;7.00;99.90
3310;DHT22;1667;53.238;10.394;2023-03-14T21:48:28;7.00;99.90
3310;DHT22;1667;53.238;10.394;2023-03-14T21:53:28;7.00;99.90
3310;DHT22;1667;53.238;10.394;2023-03-14T21:58:26;6.90;99.90
3310;DHT22;1667;53.238;10.394;2023-03-14T22:03:25;6.90;99.90
3310;DHT22;1667;53.238;10.394;2023-03-14T22:08:23;6.80;99.90
3310;DHT22;1667;53.238;10.394;2023-03-14T22:13:23;6.70;99.90
3310;DHT22;1667;53.238;10.394;2023-03-14T22:18:22;6.90;99.90
3310;DHT22;1667;53.238;10.394;2023-03-14T22:23:22;6.60;99.90
3310;DHT22;1667;53.238;10.394;2023-03-14T22:28:20;6.60;99.90
3310;DHT22;1667;53.238;10.394;2023-03-14T22:33:20;6.60;99.90
3310;DHT22;1667;53.238;10.394;2023-03-14T22:38:18;6.90;99.90
3310;DHT22;1667;53.238;10.394;2023-03-14T22:43:17;6.50;99.90
3310;DHT22;1667;53.238;10.394;2023-03-14T22:48:15;6.50;99.90
3310;DHT22;1667;53.238;10.394;2023-03-14T22:53:15;6.40;99.90
3310;DHT22;1667;53.238;10.394;2023-03-14T22:58:14;6.40;99.90
3310;DHT22;1667;53.238;10.394;2023-03-14T23:03:12;6.30;99.90
3310;DHT22;1667;53.238;10.394;2023-03-14T23:08:11;6.30;99.90
3310;DHT22;1667;53.238;10.394;2023-03-14T23:13:11;6.30;99.90
3310;DHT22;1667;53.238;10.394;2023-03-14T23:18:11;6.30;99.90
3310;DHT22;1667;53.238;10.394;2023-03-14T23:23:10;6.30;99.90
3310;DHT22;1667;53.238;10.394;2023-03-14T23:28:11;6.40;99.90
3310;DHT22;1667;53.238;10.394;2023-03-14T23:33:09;6.20;99.90
3310;DHT22;1667;53.238;10.394;2023-03-14T23:38:08;6.10;99.90
3310;DHT22;1667;53.238;10.394;2023-03-14T23:43:07;6.10;99.90
3310;DHT22;1667;53.238;10.394;2023-03-14T23:48:07;6.10;99.90
3310;DHT22;1667;53.238;10.394;2023-03-14T23:53:05;6.10;99.90
3310;DHT22;1667;53.238;10.394;2023-03-14T23:58:04;6.10;99.90
